sensor_id;sensor_type;location;lat;lon;timestamp;P1;durP1;ratioP1;P2;durP2;ratioP2
45059;SDS011;30799;49.060;9.312;2022-07-21T00:00:25;7.30;;;6.60;;
45059;SDS011;30799;49.060;9.312;2022-07-21T00:02:53;6.95;;;6.25;;
45059;SDS011;30799;49.060;9.312;2022-07-21T00:05:21;7.05;;;6.45;;
45059;SDS011;30799;49.060;9.312;2022-07-21T00:07:49;6.65;;;6.03;;
45059;SDS011;30799;49.060;9.312;2022-07-21T00:10:18;9.20;;;6.82;;
45059;SDS011;30799;49.060;9.312;2022-07-21T00:12:46;6.47;;;5.88;;
45059;SDS011;30799;49.060;9.312;2022-07-21T00:15:15;7.22;;;6.50;;
45059;SDS011;30799;49.060;9.312;2022-07-21T00:17:43;6.95;;;6.45;;
45059;SDS011;30799;49.060;9.312;2022-07-21T00:20:10;7.05;;;6.38;;
45059;SDS011;30799;49.060;9.312;2022-07-21T00:22:37;6.53;;;5.93;;
45059;SDS011;30799;49.060;9.312;2022-07-21T00:25:05;6.88;;;6.28;;
45059;SDS011;30799;49.060;9.312;2022-07-21T00:27:33;6.10;;;5.60;;
45059;SDS011;30799;49.060;9.312;2022-07-21T00:29:59;6.45;;;5.95;;
45059;SDS011;30799;49.060;9.312;2022-07-21T00:32:27;7.22;;;6.53;;
45059;SDS011;30799;49.060;9.312;2022-07-21T00:35:01;6.85;;;6.25;;
45059;SDS011;30799;49.060;9.312;2022-07-21T00:37:29;6.32;;;5.75;;
45059;SDS011;30799;49.060;9.312;2022-07-21T00:39:55;7.43;;;6.68;;
45059;SDS011;30799;49.060;9.312;2022-07-21T00:42:26;7.03;;;6.40;;
45059;SDS011;30799;49.060;9.312;2022-07-21T00:44:54;6.30;;;5.80;;
45059;SDS011;30799;49.060;9.312;2022-07-21T00:47:22;6.30;;;5.80;;
45059;SDS011;30799;49.060;9.312;2022-07-21T00:49:50;7.00;;;6.30;;
45059;SDS011;30799;49.060;9.312;2022-07-21T00:52:17;6.80;;;6.20;;
45059;SDS011;30799;49.060;9.312;2022-07-21T00:54:44;5.97;;;5.47;;
45059;SDS011;30799;49.060;9.312;2022-07-21T00:57:12;6.70;;;6.10;;
45059;SDS011;30799;49.060;9.312;2022-07-21T00:59:40;6.47;;;5.90;;
45059;SDS011;30799;49.060;9.312;2022-07-21T01:02:07;6.20;;;5.60;;
45059;SDS011;30799;49.060;9.312;2022-07-21T01:04:35;6.05;;;5.55;;
45059;SDS011;30799;49.060;9.312;2022-07-21T01:07:03;7.40;;;6.05;;
45059;SDS011;30799;49.060;9.312;2022-07-21T01:09:31;6.53;;;5.93;;
45059;SDS011;30799;49.060;9.312;2022-07-21T01:11:59;6.05;;;5.50;;
45059;SDS011;30799;49.060;9.312;2022-07-21T01:14:26;6.35;;;5.55;;
45059;SDS011;30799;49.060;9.312;2022-07-21T01:16:53;6.07;;;5.57;;
45059;SDS011;30799;49.060;9.312;2022-07-21T01:19:20;6.03;;;5.47;;
45059;SDS011;30799;49.060;9.312;2022-07-21T01:21:48;6.05;;;5.55;;
45059;SDS011;30799;49.060;9.312;2022-07-21T01:24:16;6.50;;;5.90;;
45059;SDS011;30799;49.060;9.312;2022-07-21T01:26:44;6.57;;;5.97;;
45059;SDS011;30799;49.060;9.312;2022-07-21T01:29:12;6.13;;;5.63;;
45059;SDS011;30799;49.060;9.312;2022-07-21T01:31:40;6.10;;;5.60;;
45059;SDS011;30799;49.060;9.312;2022-07-21T01:34:08;6.13;;;5.60;;
45059;SDS011;30799;49.060;9.312;2022-07-21T01:36:35;5.57;;;5.00;;
45059;SDS011;30799;49.060;9.312;2022-07-21T01:39:03;5.82;;;5.32;;
45059;SDS011;30799;49.060;9.312;2022-07-21T01:41:50;5.97;;;5.47;;
45059;SDS011;30799;49.060;9.312;2022-07-21T01:44:17;5.90;;;5.40;;
45059;SDS011;30799;49.060;9.312;2022-07-21T01:46:45;6.65;;;6.05;;
45059;SDS011;30799;49.060;9.312;2022-07-21T01:49:14;5.88;;;5.38;;
45059;SDS011;30799;49.060;9.312;2022-07-21T01:51:43;5.70;;;5.20;;
45059;SDS011;30799;49.060;9.312;2022-07-21T01:54:10;5.78;;;5.28;;
45059;SDS011;30799;49.060;9.312;2022-07-21T01:56:38;5.78;;;5.28;;
45059;SDS011;30799;49.060;9.312;2022-07-21T01:59:05;5.93;;;5.43;;
45059;SDS011;30799;49.060;9.312;2022-07-21T02:01:33;5.43;;;5.03;;
45059;SDS011;30799;49.060;9.312;2022-07-21T02:04:02;6.10;;;5.53;;
45059;SDS011;30799;49.060;9.312;2022-07-21T02:06:30;5.93;;;5.38;;
45059;SDS011;30799;49.060;9.312;2022-07-21T02:08:58;5.75;;;5.25;;
45059;SDS011;30799;49.060;9.312;2022-07-21T02:11:24;5.75;;;5.25;;
45059;SDS011;30799;49.060;9.312;2022-07-21T02:13:51;5.80;;;5.30;;
45059;SDS011;30799;49.060;9.312;2022-07-21T02:16:18;5.47;;;4.97;;
45059;SDS011;30799;49.060;9.312;2022-07-21T02:18:45;5.75;;;5.25;;
45059;SDS011;30799;49.060;9.312;2022-07-21T02:21:12;5.55;;;5.07;;
45059;SDS011;30799;49.060;9.312;2022-07-21T02:23:39;5.70;;;5.20;;
45059;SDS011;30799;49.060;9.312;2022-07-21T02:26:05;5.80;;;5.30;;
45059;SDS011;30799;49.060;9.312;2022-07-21T02:28:33;5.75;;;5.30;;
45059;SDS011;30799;49.060;9.312;2022-07-21T02:31:00;5.65;;;5.25;;
45059;SDS011;30799;49.060;9.312;2022-07-21T02:33:27;5.88;;;5.38;;
45059;SDS011;30799;49.060;9.312;2022-07-21T02:35:53;5.88;;;5.28;;
45059;SDS011;30799;49.060;9.312;2022-07-21T02:38:20;6.13;;;5.60;;
45059;SDS011;30799;49.060;9.312;2022-07-21T02:40:47;5.45;;;4.95;;
45059;SDS011;30799;49.060;9.312;2022-07-21T02:43:22;5.25;;;4.75;;
45059;SDS011;30799;49.060;9.312;2022-07-21T02:45:48;5.30;;;4.90;;
45059;SDS011;30799;49.060;9.312;2022-07-21T02:48:15;5.70;;;5.25;;
45059;SDS011;30799;49.060;9.312;2022-07-21T02:50:43;5.13;;;4.72;;
45059;SDS011;30799;49.060;9.312;2022-07-21T02:53:14;5.85;;;5.35;;
45059;SDS011;30799;49.060;9.312;2022-07-21T02:55:46;5.88;;;5.38;;
45059;SDS011;30799;49.060;9.312;2022-07-21T02:58:14;5.60;;;5.10;;
45059;SDS011;30799;49.060;9.312;2022-07-21T03:00:52;4.75;;;4.38;;
45059;SDS011;30799;49.060;9.312;2022-07-21T03:03:29;5.55;;;5.05;;
45059;SDS011;30799;49.060;9.312;2022-07-21T03:05:58;5.47;;;4.97;;
45059;SDS011;30799;49.060;9.312;2022-07-21T03:08:25;4.88;;;4.47;;
45059;SDS011;30799;49.060;9.312;2022-07-21T03:10:53;5.97;;;5.38;;
45059;SDS011;30799;49.060;9.312;2022-07-21T03:13:20;5.60;;;5.10;;
45059;SDS011;30799;49.060;9.312;2022-07-21T03:15:47;5.10;;;4.70;;
45059;SDS011;30799;49.060;9.312;2022-07-21T03:18:14;6.18;;;4.88;;
45059;SDS011;30799;49.060;9.312;2022-07-21T03:20:42;5.43;;;5.00;;
45059;SDS011;30799;49.060;9.312;2022-07-21T03:23:09;5.38;;;4.88;;
45059;SDS011;30799;49.060;9.312;2022-07-21T03:25:36;5.43;;;4.93;;
45059;SDS011;30799;49.060;9.312;2022-07-21T03:28:03;5.13;;;4.72;;
45059;SDS011;30799;49.060;9.312;2022-07-21T03:30:30;5.53;;;5.03;;
45059;SDS011;30799;49.060;9.312;2022-07-21T03:32:57;5.07;;;4.68;;
45059;SDS011;30799;49.060;9.312;2022-07-21T03:35:24;5.10;;;4.70;;
45059;SDS011;30799;49.060;9.312;2022-07-21T03:37:55;4.60;;;4.30;;
45059;SDS011;30799;49.060;9.312;2022-07-21T03:40:26;5.68;;;5.05;;
45059;SDS011;30799;49.060;9.312;2022-07-21T03:42:59;5.22;;;4.82;;
45059;SDS011;30799;49.060;9.312;2022-07-21T03:45:27;5.43;;;5.03;;
45059;SDS011;30799;49.060;9.312;2022-07-21T03:47:57;4.93;;;4.53;;
45059;SDS011;30799;49.060;9.312;2022-07-21T03:50:24;4.90;;;4.50;;
45059;SDS011;30799;49.060;9.312;2022-07-21T03:52:51;5.05;;;4.65;;
45059;SDS011;30799;49.060;9.312;2022-07-21T03:55:18;5.32;;;4.93;;
45059;SDS011;30799;49.060;9.312;2022-07-21T03:57:46;4.95;;;4.55;;
45059;SDS011;30799;49.060;9.312;2022-07-21T04:00:17;4.95;;;4.55;;
45059;SDS011;30799;49.060;9.312;2022-07-21T04:02:46;5.13;;;4.72;;
45059;SDS011;30799;49.060;9.312;2022-07-21T04:05:14;4.90;;;4.50;;
45059;SDS011;30799;49.060;9.312;2022-07-21T04:07:42;5.18;;;4.78;;
45059;SDS011;30799;49.060;9.312;2022-07-21T04:10:10;5.35;;;4.85;;
45059;SDS011;30799;49.060;9.312;2022-07-21T04:12:38;5.32;;;4.82;;
45059;SDS011;30799;49.060;9.312;2022-07-21T04:15:05;4.95;;;4.55;;
45059;SDS011;30799;49.060;9.312;2022-07-21T04:17:33;4.93;;;4.53;;
45059;SDS011;30799;49.060;9.312;2022-07-21T04:20:01;4.80;;;4.40;;
45059;SDS011;30799;49.060;9.312;2022-07-21T04:22:28;4.82;;;4.43;;
45059;SDS011;30799;49.060;9.312;2022-07-21T04:24:55;4.32;;;4.03;;
45059;SDS011;30799;49.060;9.312;2022-07-21T04:27:21;4.75;;;4.35;;
45059;SDS011;30799;49.060;9.312;2022-07-21T04:29:48;5.05;;;4.65;;
45059;SDS011;30799;49.060;9.312;2022-07-21T04:32:15;4.70;;;4.30;;
45059;SDS011;30799;49.060;9.312;2022-07-21T04:34:41;4.97;;;4.53;;
45059;SDS011;30799;49.060;9.312;2022-07-21T04:37:08;4.68;;;4.28;;
45059;SDS011;30799;49.060;9.312;2022-07-21T04:39:35;4.78;;;4.38;;
45059;SDS011;30799;49.060;9.312;2022-07-21T04:42:01;4.88;;;4.47;;
45059;SDS011;30799;49.060;9.312;2022-07-21T04:44:29;4.75;;;4.35;;
45059;SDS011;30799;49.060;9.312;2022-07-21T04:46:56;4.80;;;4.40;;
45059;SDS011;30799;49.060;9.312;2022-07-21T04:49:23;4.85;;;4.45;;
45059;SDS011;30799;49.060;9.312;2022-07-21T04:51:50;4.93;;;4.53;;
45059;SDS011;30799;49.060;9.312;2022-07-21T04:54:17;4.75;;;4.35;;
45059;SDS011;30799;49.060;9.312;2022-07-21T04:56:43;4.55;;;4.25;;
45059;SDS011;30799;49.060;9.312;2022-07-21T04:59:11;4.50;;;4.20;;
45059;SDS011;30799;49.060;9.312;2022-07-21T05:01:38;11.10;;;10.00;;
45059;SDS011;30799;49.060;9.312;2022-07-21T05:04:05;12.13;;;10.80;;
45059;SDS011;30799;49.060;9.312;2022-07-21T05:06:33;13.85;;;11.38;;
45059;SDS011;30799;49.060;9.312;2022-07-21T05:09:00;14.60;;;11.73;;
45059;SDS011;30799;49.060;9.312;2022-07-21T05:11:26;13.00;;;11.70;;
45059;SDS011;30799;49.060;9.312;2022-07-21T05:13:53;12.63;;;11.38;;
45059;SDS011;30799;49.060;9.312;2022-07-21T05:16:20;15.52;;;11.65;;
45059;SDS011;30799;49.060;9.312;2022-07-21T05:18:47;13.00;;;11.27;;
45059;SDS011;30799;49.060;9.312;2022-07-21T05:21:14;12.13;;;10.93;;
45059;SDS011;30799;49.060;9.312;2022-07-21T05:23:41;13.35;;;11.95;;
45059;SDS011;30799;49.060;9.312;2022-07-21T05:26:08;12.25;;;10.60;;
45059;SDS011;30799;49.060;9.312;2022-07-21T05:28:34;12.63;;;11.30;;
45059;SDS011;30799;49.060;9.312;2022-07-21T05:31:01;12.60;;;11.18;;
45059;SDS011;30799;49.060;9.312;2022-07-21T05:33:28;15.18;;;11.10;;
45059;SDS011;30799;49.060;9.312;2022-07-21T05:35:55;13.95;;;10.65;;
45059;SDS011;30799;49.060;9.312;2022-07-21T05:38:21;15.55;;;9.35;;
45059;SDS011;30799;49.060;9.312;2022-07-21T05:40:53;18.50;;;9.65;;
45059;SDS011;30799;49.060;9.312;2022-07-21T05:43:20;11.50;;;9.35;;
45059;SDS011;30799;49.060;9.312;2022-07-21T05:45:47;14.38;;;8.93;;
45059;SDS011;30799;49.060;9.312;2022-07-21T05:48:14;9.38;;;8.00;;
45059;SDS011;30799;49.060;9.312;2022-07-21T05:50:41;10.75;;;8.07;;
45059;SDS011;30799;49.060;9.312;2022-07-21T05:53:07;9.45;;;8.55;;
45059;SDS011;30799;49.060;9.312;2022-07-21T05:55:34;10.68;;;8.23;;
45059;SDS011;30799;49.060;9.312;2022-07-21T05:58:01;10.13;;;9.23;;
45059;SDS011;30799;49.060;9.312;2022-07-21T06:00:36;13.05;;;8.85;;
45059;SDS011;30799;49.060;9.312;2022-07-21T06:03:03;11.20;;;8.20;;
45059;SDS011;30799;49.060;9.312;2022-07-21T06:05:37;9.95;;;7.65;;
45059;SDS011;30799;49.060;9.312;2022-07-21T06:08:04;12.40;;;8.35;;
45059;SDS011;30799;49.060;9.312;2022-07-21T06:10:30;10.23;;;8.65;;
45059;SDS011;30799;49.060;9.312;2022-07-21T06:12:59;9.00;;;7.53;;
45059;SDS011;30799;49.060;9.312;2022-07-21T06:15:26;8.45;;;7.65;;
45059;SDS011;30799;49.060;9.312;2022-07-21T06:17:52;10.40;;;8.10;;
45059;SDS011;30799;49.060;9.312;2022-07-21T06:20:20;9.05;;;7.97;;
45059;SDS011;30799;49.060;9.312;2022-07-21T06:22:47;8.88;;;8.00;;
45059;SDS011;30799;49.060;9.312;2022-07-21T06:25:14;8.57;;;7.45;;
45059;SDS011;30799;49.060;9.312;2022-07-21T06:27:40;9.00;;;8.10;;
45059;SDS011;30799;49.060;9.312;2022-07-21T06:30:07;8.10;;;7.25;;
45059;SDS011;30799;49.060;9.312;2022-07-21T06:32:35;8.68;;;7.50;;
45059;SDS011;30799;49.060;9.312;2022-07-21T06:35:02;8.55;;;7.65;;
45059;SDS011;30799;49.060;9.312;2022-07-21T06:37:29;8.85;;;7.95;;
45059;SDS011;30799;49.060;9.312;2022-07-21T06:39:55;8.07;;;7.18;;
45059;SDS011;30799;49.060;9.312;2022-07-21T06:42:22;9.88;;;7.10;;
45059;SDS011;30799;49.060;9.312;2022-07-21T06:44:49;8.93;;;7.60;;
45059;SDS011;30799;49.060;9.312;2022-07-21T06:47:18;8.30;;;7.40;;
45059;SDS011;30799;49.060;9.312;2022-07-21T06:49:45;8.50;;;7.45;;
45059;SDS011;30799;49.060;9.312;2022-07-21T06:52:12;7.82;;;7.03;;
45059;SDS011;30799;49.060;9.312;2022-07-21T06:54:39;8.88;;;7.97;;
45059;SDS011;30799;49.060;9.312;2022-07-21T06:57:06;8.02;;;7.28;;
45059;SDS011;30799;49.060;9.312;2022-07-21T06:59:32;8.57;;;7.10;;
45059;SDS011;30799;49.060;9.312;2022-07-21T07:01:59;9.25;;;7.38;;
45059;SDS011;30799;49.060;9.312;2022-07-21T07:04:27;7.53;;;6.82;;
45059;SDS011;30799;49.060;9.312;2022-07-21T07:06:54;9.52;;;7.95;;
45059;SDS011;30799;49.060;9.312;2022-07-21T07:09:21;8.07;;;7.28;;
45059;SDS011;30799;49.060;9.312;2022-07-21T07:11:49;8.32;;;7.30;;
45059;SDS011;30799;49.060;9.312;2022-07-21T07:14:38;8.52;;;7.68;;
45059;SDS011;30799;49.060;9.312;2022-07-21T07:17:05;7.88;;;6.65;;
45059;SDS011;30799;49.060;9.312;2022-07-21T07:19:32;8.32;;;7.53;;
45059;SDS011;30799;49.060;9.312;2022-07-21T07:21:59;8.77;;;7.63;;
45059;SDS011;30799;49.060;9.312;2022-07-21T07:24:25;7.53;;;6.72;;
45059;SDS011;30799;49.060;9.312;2022-07-21T07:26:52;7.32;;;6.63;;
45059;SDS011;30799;49.060;9.312;2022-07-21T07:29:19;9.45;;;7.38;;
45059;SDS011;30799;49.060;9.312;2022-07-21T07:31:45;9.10;;;7.45;;
45059;SDS011;30799;49.060;9.312;2022-07-21T07:34:12;7.35;;;6.68;;
45059;SDS011;30799;49.060;9.312;2022-07-21T07:36:39;8.15;;;7.35;;
45059;SDS011;30799;49.060;9.312;2022-07-21T07:39:10;7.10;;;6.50;;
45059;SDS011;30799;49.060;9.312;2022-07-21T07:41:38;7.38;;;6.65;;
45059;SDS011;30799;49.060;9.312;2022-07-21T07:44:05;7.22;;;6.53;;
45059;SDS011;30799;49.060;9.312;2022-07-21T07:46:31;7.32;;;6.72;;
45059;SDS011;30799;49.060;9.312;2022-07-21T07:48:58;7.68;;;6.97;;
45059;SDS011;30799;49.060;9.312;2022-07-21T07:51:35;7.25;;;6.57;;
45059;SDS011;30799;49.060;9.312;2022-07-21T07:54:02;8.48;;;7.47;;
45059;SDS011;30799;49.060;9.312;2022-07-21T07:56:30;7.10;;;6.40;;
45059;SDS011;30799;49.060;9.312;2022-07-21T07:58:57;7.40;;;6.70;;
45059;SDS011;30799;49.060;9.312;2022-07-21T08:01:24;7.45;;;6.75;;
45059;SDS011;30799;49.060;9.312;2022-07-21T08:03:51;7.00;;;6.40;;
45059;SDS011;30799;49.060;9.312;2022-07-21T08:06:18;6.93;;;6.32;;
45059;SDS011;30799;49.060;9.312;2022-07-21T08:08:45;7.07;;;6.47;;
45059;SDS011;30799;49.060;9.312;2022-07-21T08:11:11;7.40;;;6.70;;
45059;SDS011;30799;49.060;9.312;2022-07-21T08:13:39;7.15;;;6.45;;
45059;SDS011;30799;49.060;9.312;2022-07-21T08:16:06;7.57;;;6.38;;
45059;SDS011;30799;49.060;9.312;2022-07-21T08:18:33;7.30;;;5.93;;
45059;SDS011;30799;49.060;9.312;2022-07-21T08:21:00;7.07;;;6.38;;
45059;SDS011;30799;49.060;9.312;2022-07-21T08:23:26;6.68;;;6.07;;
45059;SDS011;30799;49.060;9.312;2022-07-21T08:25:53;7.57;;;6.90;;
45059;SDS011;30799;49.060;9.312;2022-07-21T08:28:20;6.75;;;6.15;;
45059;SDS011;30799;49.060;9.312;2022-07-21T08:30:46;7.13;;;6.43;;
45059;SDS011;30799;49.060;9.312;2022-07-21T08:33:13;6.78;;;6.18;;
45059;SDS011;30799;49.060;9.312;2022-07-21T08:35:40;6.93;;;6.32;;
45059;SDS011;30799;49.060;9.312;2022-07-21T08:38:07;6.93;;;6.28;;
45059;SDS011;30799;49.060;9.312;2022-07-21T08:40:38;6.93;;;6.32;;
45059;SDS011;30799;49.060;9.312;2022-07-21T08:43:06;7.03;;;6.32;;
45059;SDS011;30799;49.060;9.312;2022-07-21T08:45:35;7.00;;;6.32;;
45059;SDS011;30799;49.060;9.312;2022-07-21T08:48:03;6.43;;;5.85;;
45059;SDS011;30799;49.060;9.312;2022-07-21T08:50:32;7.10;;;6.40;;
45059;SDS011;30799;49.060;9.312;2022-07-21T08:53:03;7.07;;;6.40;;
45059;SDS011;30799;49.060;9.312;2022-07-21T08:55:31;7.07;;;6.38;;
45059;SDS011;30799;49.060;9.312;2022-07-21T08:58:00;6.90;;;6.30;;
45059;SDS011;30799;49.060;9.312;2022-07-21T09:00:33;6.57;;;6.05;;
45059;SDS011;30799;49.060;9.312;2022-07-21T09:03:23;6.38;;;5.78;;
45059;SDS011;30799;49.060;9.312;2022-07-21T09:05:58;6.40;;;5.80;;
45059;SDS011;30799;49.060;9.312;2022-07-21T09:08:30;6.90;;;6.28;;
45059;SDS011;30799;49.060;9.312;2022-07-21T09:14:04;6.15;;;5.63;;
45059;SDS011;30799;49.060;9.312;2022-07-21T09:16:42;6.20;;;5.68;;
45059;SDS011;30799;49.060;9.312;2022-07-21T09:21:50;6.38;;;5.78;;
45059;SDS011;30799;49.060;9.312;2022-07-21T09:24:23;6.35;;;5.72;;
45059;SDS011;30799;49.060;9.312;2022-07-21T09:27:18;6.28;;;5.68;;
45059;SDS011;30799;49.060;9.312;2022-07-21T09:29:50;6.22;;;5.15;;
45059;SDS011;30799;49.060;9.312;2022-07-21T09:34:54;6.30;;;5.68;;
45059;SDS011;30799;49.060;9.312;2022-07-21T09:37:32;6.25;;;5.65;;
45059;SDS011;30799;49.060;9.312;2022-07-21T09:40:00;6.88;;;6.15;;
45059;SDS011;30799;49.060;9.312;2022-07-21T09:42:42;6.70;;;6.10;;
45059;SDS011;30799;49.060;9.312;2022-07-21T09:45:14;6.13;;;5.63;;
45059;SDS011;30799;49.060;9.312;2022-07-21T09:47:45;6.05;;;5.55;;
45059;SDS011;30799;49.060;9.312;2022-07-21T09:50:14;5.82;;;5.32;;
45059;SDS011;30799;49.060;9.312;2022-07-21T09:52:54;5.50;;;5.03;;
45059;SDS011;30799;49.060;9.312;2022-07-21T09:55:23;5.63;;;5.13;;
45059;SDS011;30799;49.060;9.312;2022-07-21T09:57:49;6.15;;;5.55;;
45059;SDS011;30799;49.060;9.312;2022-07-21T10:00:19;5.57;;;5.07;;
45059;SDS011;30799;49.060;9.312;2022-07-21T10:02:47;5.60;;;5.10;;
45059;SDS011;30799;49.060;9.312;2022-07-21T10:05:16;6.03;;;5.45;;
45059;SDS011;30799;49.060;9.312;2022-07-21T10:07:56;5.50;;;5.00;;
45059;SDS011;30799;49.060;9.312;2022-07-21T10:10:26;6.05;;;5.47;;
45059;SDS011;30799;49.060;9.312;2022-07-21T10:13:13;6.00;;;5.50;;
45059;SDS011;30799;49.060;9.312;2022-07-21T10:15:42;6.03;;;5.53;;
45059;SDS011;30799;49.060;9.312;2022-07-21T10:18:13;5.68;;;5.18;;
45059;SDS011;30799;49.060;9.312;2022-07-21T10:20:41;5.53;;;5.03;;
45059;SDS011;30799;49.060;9.312;2022-07-21T10:25:54;5.15;;;4.75;;
45059;SDS011;30799;49.060;9.312;2022-07-21T10:28:21;5.80;;;5.30;;
45059;SDS011;30799;49.060;9.312;2022-07-21T10:30:54;5.63;;;5.18;;
45059;SDS011;30799;49.060;9.312;2022-07-21T10:36:11;6.10;;;5.60;;
45059;SDS011;30799;49.060;9.312;2022-07-21T10:41:40;5.25;;;4.85;;
45059;SDS011;30799;49.060;9.312;2022-07-21T10:47:04;5.93;;;5.43;;
45059;SDS011;30799;49.060;9.312;2022-07-21T11:00:47;5.50;;;5.00;;
45059;SDS011;30799;49.060;9.312;2022-07-21T11:03:46;5.35;;;4.85;;
45059;SDS011;30799;49.060;9.312;2022-07-21T11:06:36;5.75;;;5.25;;
45059;SDS011;30799;49.060;9.312;2022-07-21T11:09:08;5.07;;;4.63;;
45059;SDS011;30799;49.060;9.312;2022-07-21T11:11:40;5.43;;;4.93;;
45059;SDS011;30799;49.060;9.312;2022-07-21T11:14:34;5.55;;;5.05;;
45059;SDS011;30799;49.060;9.312;2022-07-21T11:17:00;5.20;;;4.70;;
45059;SDS011;30799;49.060;9.312;2022-07-21T11:19:30;5.07;;;4.68;;
45059;SDS011;30799;49.060;9.312;2022-07-21T11:21:58;5.35;;;4.95;;
45059;SDS011;30799;49.060;9.312;2022-07-21T11:24:27;5.80;;;5.28;;
45059;SDS011;30799;49.060;9.312;2022-07-21T11:26:55;5.50;;;5.00;;
45059;SDS011;30799;49.060;9.312;2022-07-21T11:29:28;5.45;;;4.95;;
45059;SDS011;30799;49.060;9.312;2022-07-21T11:31:56;5.50;;;5.00;;
45059;SDS011;30799;49.060;9.312;2022-07-21T11:34:24;4.97;;;4.57;;
45059;SDS011;30799;49.060;9.312;2022-07-21T11:37:02;5.10;;;4.70;;
45059;SDS011;30799;49.060;9.312;2022-07-21T11:39:49;4.78;;;4.38;;
45059;SDS011;30799;49.060;9.312;2022-07-21T11:42:16;4.90;;;4.50;;
45059;SDS011;30799;49.060;9.312;2022-07-21T11:44:43;4.95;;;4.55;;
45059;SDS011;30799;49.060;9.312;2022-07-21T11:47:11;5.05;;;4.65;;
45059;SDS011;30799;49.060;9.312;2022-07-21T11:49:40;4.97;;;4.57;;
45059;SDS011;30799;49.060;9.312;2022-07-21T11:52:12;4.70;;;4.32;;
45059;SDS011;30799;49.060;9.312;2022-07-21T11:54:44;4.95;;;4.55;;
45059;SDS011;30799;49.060;9.312;2022-07-21T11:57:16;4.72;;;4.40;;
45059;SDS011;30799;49.060;9.312;2022-07-21T11:59:44;5.78;;;5.22;;
45059;SDS011;30799;49.060;9.312;2022-07-21T12:02:13;5.25;;;4.85;;
45059;SDS011;30799;49.060;9.312;2022-07-21T12:04:49;4.70;;;4.30;;
45059;SDS011;30799;49.060;9.312;2022-07-21T12:07:31;4.90;;;4.50;;
45059;SDS011;30799;49.060;9.312;2022-07-21T12:17:54;4.50;;;4.20;;
45059;SDS011;30799;49.060;9.312;2022-07-21T12:20:29;4.32;;;3.97;;
45059;SDS011;30799;49.060;9.312;2022-07-21T12:22:59;4.47;;;4.07;;
45059;SDS011;30799;49.060;9.312;2022-07-21T12:25:38;4.63;;;4.22;;
45059;SDS011;30799;49.060;9.312;2022-07-21T12:28:06;4.93;;;4.53;;
45059;SDS011;30799;49.060;9.312;2022-07-21T12:30:37;4.93;;;4.50;;
45059;SDS011;30799;49.060;9.312;2022-07-21T12:33:06;4.80;;;4.40;;
45059;SDS011;30799;49.060;9.312;2022-07-21T12:35:36;4.57;;;4.20;;
45059;SDS011;30799;49.060;9.312;2022-07-21T12:40:32;4.55;;;4.20;;
45059;SDS011;30799;49.060;9.312;2022-07-21T12:43:05;4.40;;;4.00;;
45059;SDS011;30799;49.060;9.312;2022-07-21T12:45:53;4.88;;;4.18;;
45059;SDS011;30799;49.060;9.312;2022-07-21T12:48:32;4.50;;;4.20;;
45059;SDS011;30799;49.060;9.312;2022-07-21T12:51:10;4.07;;;3.78;;
45059;SDS011;30799;49.060;9.312;2022-07-21T12:53:47;4.05;;;3.75;;
45059;SDS011;30799;49.060;9.312;2022-07-21T12:56:19;4.70;;;4.30;;
45059;SDS011;30799;49.060;9.312;2022-07-21T12:58:46;4.53;;;4.13;;
45059;SDS011;30799;49.060;9.312;2022-07-21T13:01:16;4.40;;;4.07;;
45059;SDS011;30799;49.060;9.312;2022-07-21T13:03:44;4.43;;;4.13;;
45059;SDS011;30799;49.060;9.312;2022-07-21T13:06:11;4.30;;;4.00;;
45059;SDS011;30799;49.060;9.312;2022-07-21T13:08:40;5.07;;;4.55;;
45059;SDS011;30799;49.060;9.312;2022-07-21T13:11:08;4.30;;;4.00;;
45059;SDS011;30799;49.060;9.312;2022-07-21T13:13:35;4.65;;;4.25;;
45059;SDS011;30799;49.060;9.312;2022-07-21T13:16:02;3.97;;;3.67;;
45059;SDS011;30799;49.060;9.312;2022-07-21T13:18:30;4.20;;;3.90;;
45059;SDS011;30799;49.060;9.312;2022-07-21T13:20:56;4.30;;;4.00;;
45059;SDS011;30799;49.060;9.312;2022-07-21T13:23:23;4.45;;;4.15;;
45059;SDS011;30799;49.060;9.312;2022-07-21T13:25:50;4.57;;;4.18;;
45059;SDS011;30799;49.060;9.312;2022-07-21T13:28:29;4.68;;;4.28;;
45059;SDS011;30799;49.060;9.312;2022-07-21T13:30:56;4.00;;;3.60;;
45059;SDS011;30799;49.060;9.312;2022-07-21T13:33:22;4.25;;;3.85;;
45059;SDS011;30799;49.060;9.312;2022-07-21T13:35:49;4.10;;;3.80;;
45059;SDS011;30799;49.060;9.312;2022-07-21T13:38:16;4.10;;;3.80;;
45059;SDS011;30799;49.060;9.312;2022-07-21T13:40:42;4.57;;;4.18;;
45059;SDS011;30799;49.060;9.312;2022-07-21T13:43:30;4.85;;;4.38;;
45059;SDS011;30799;49.060;9.312;2022-07-21T13:46:04;4.53;;;4.22;;
45059;SDS011;30799;49.060;9.312;2022-07-21T13:48:31;4.22;;;3.92;;
45059;SDS011;30799;49.060;9.312;2022-07-21T13:51:02;4.03;;;3.72;;
45059;SDS011;30799;49.060;9.312;2022-07-21T13:53:29;3.95;;;3.65;;
45059;SDS011;30799;49.060;9.312;2022-07-21T13:55:56;4.00;;;3.70;;
45059;SDS011;30799;49.060;9.312;2022-07-21T13:58:23;4.38;;;3.97;;
45059;SDS011;30799;49.060;9.312;2022-07-21T14:00:50;4.28;;;3.88;;
45059;SDS011;30799;49.060;9.312;2022-07-21T14:03:19;4.07;;;3.78;;
45059;SDS011;30799;49.060;9.312;2022-07-21T14:05:46;4.13;;;3.83;;
45059;SDS011;30799;49.060;9.312;2022-07-21T14:08:13;3.92;;;3.63;;
45059;SDS011;30799;49.060;9.312;2022-07-21T14:10:40;3.53;;;3.22;;
45059;SDS011;30799;49.060;9.312;2022-07-21T14:13:06;3.83;;;3.53;;
45059;SDS011;30799;49.060;9.312;2022-07-21T14:15:33;4.45;;;3.90;;
45059;SDS011;30799;49.060;9.312;2022-07-21T14:18:00;4.07;;;3.78;;
45059;SDS011;30799;49.060;9.312;2022-07-21T14:20:27;3.80;;;3.50;;
45059;SDS011;30799;49.060;9.312;2022-07-21T14:22:54;4.03;;;3.72;;
45059;SDS011;30799;49.060;9.312;2022-07-21T14:25:22;4.03;;;3.72;;
45059;SDS011;30799;49.060;9.312;2022-07-21T14:27:53;4.20;;;3.88;;
45059;SDS011;30799;49.060;9.312;2022-07-21T14:30:21;3.85;;;3.55;;
45059;SDS011;30799;49.060;9.312;2022-07-21T14:32:50;4.05;;;3.75;;
45059;SDS011;30799;49.060;9.312;2022-07-21T14:35:17;3.97;;;3.60;;
45059;SDS011;30799;49.060;9.312;2022-07-21T14:37:48;3.60;;;3.30;;
45059;SDS011;30799;49.060;9.312;2022-07-21T14:40:16;4.40;;;4.10;;
45059;SDS011;30799;49.060;9.312;2022-07-21T14:42:44;4.00;;;3.70;;
45059;SDS011;30799;49.060;9.312;2022-07-21T14:45:12;4.00;;;3.70;;
45059;SDS011;30799;49.060;9.312;2022-07-21T14:47:47;3.65;;;3.35;;
45059;SDS011;30799;49.060;9.312;2022-07-21T14:50:15;3.60;;;3.35;;
45059;SDS011;30799;49.060;9.312;2022-07-21T14:52:47;3.65;;;3.38;;
45059;SDS011;30799;49.060;9.312;2022-07-21T14:55:14;3.92;;;3.63;;
45059;SDS011;30799;49.060;9.312;2022-07-21T14:57:41;3.80;;;3.50;;
45059;SDS011;30799;49.060;9.312;2022-07-21T15:00:08;3.80;;;3.50;;
45059;SDS011;30799;49.060;9.312;2022-07-21T15:02:35;3.95;;;3.65;;
45059;SDS011;30799;49.060;9.312;2022-07-21T15:05:03;3.70;;;3.42;;
45059;SDS011;30799;49.060;9.312;2022-07-21T15:07:30;4.00;;;3.70;;
45059;SDS011;30799;49.060;9.312;2022-07-21T15:09:57;4.05;;;3.75;;
45059;SDS011;30799;49.060;9.312;2022-07-21T15:12:24;3.80;;;3.50;;
45059;SDS011;30799;49.060;9.312;2022-07-21T15:14:51;3.55;;;3.35;;
45059;SDS011;30799;49.060;9.312;2022-07-21T15:17:18;3.80;;;3.50;;
45059;SDS011;30799;49.060;9.312;2022-07-21T15:19:45;4.05;;;3.75;;
45059;SDS011;30799;49.060;9.312;2022-07-21T15:22:12;3.80;;;3.50;;
45059;SDS011;30799;49.060;9.312;2022-07-21T15:24:38;3.47;;;3.28;;
45059;SDS011;30799;49.060;9.312;2022-07-21T15:27:05;3.67;;;3.38;;
45059;SDS011;30799;49.060;9.312;2022-07-21T15:29:32;4.00;;;3.60;;
45059;SDS011;30799;49.060;9.312;2022-07-21T15:31:59;3.67;;;3.38;;
45059;SDS011;30799;49.060;9.312;2022-07-21T15:34:26;3.85;;;3.55;;
45059;SDS011;30799;49.060;9.312;2022-07-21T15:36:52;3.33;;;3.13;;